Time;durP1;ratioP1;P1;durP2;ratioP2;P2;SDS_P1;SDS_P2;PMS_P1;PMS_P2;Temp;Humidity;BMP_temperature;BMP_pressure;BME280_temperature;BME280_humidity;BME280_pressure;Samples;Min_cycle;Max_cycle;Signal;HPM_P1;HPM_P2
2021/03/18 00:01:55;;;;;;;11.07;3.47;;;;;;;;;;5013855;28;20291;-70
2021/03/18 00:04:40;;;;;;;10.50;3.67;;;;;;;;;;5013784;28;20230;-71
2021/03/18 00:07:24;;;;;;;10.53;3.33;;;;;;;;;;5013275;28;20210;-70
2021/03/18 00:10:09;;;;;;;9.23;3.77;;;;;;;;;;5013959;28;20199;-70
2021/03/18 00:12:54;;;;;;;10.37;3.67;;;;;;;;;;5013830;28;20222;-70
2021/03/18 00:15:39;;;;;;;10.70;4.17;;;;;;;;;;5013294;28;20280;-70
2021/03/18 00:18:28;;;;;;;8.53;3.77;;;;;;;;;;5014001;28;20289;-71
2021/03/18 00:21:13;;;;;;;11.83;4.93;;;;;;;;;;5013504;28;20194;-70
2021/03/18 00:23:57;;;;;;;11.70;4.57;;;;;;;;;;5013451;28;20428;-70
2021/03/18 00:26:42;;;;;;;12.60;4.90;;;;;;;;;;5012828;28;20678;-71
2021/03/18 00:29:27;;;;;;;13.05;6.28;;;;;;;;;;5012322;28;20923;-70
2021/03/18 00:32:12;;;;;;;12.67;6.47;;;;;;;;;;5012872;28;20223;-70
2021/03/18 00:34:56;;;;;;;13.57;6.57;;;;;;;;;;5013022;28;20230;-70
2021/03/18 00:37:42;;;;;;;13.17;6.47;;;;;;;;;;5012588;28;20209;-71
2021/03/18 00:40:28;;;;;;;13.43;6.27;;;;;;;;;;5013095;28;20242;-70
2021/03/18 00:43:14;;;;;;;10.93;6.23;;;;;;;;;;5013067;28;20264;-71
2021/03/18 00:45:59;;;;;;;12.23;6.20;;;;;;;;;;5012451;28;20261;-71
2021/03/18 00:48:44;;;;;;;13.60;6.20;;;;;;;;;;5013232;28;20249;-71
2021/03/18 00:51:29;;;;;;;13.80;6.43;;;;;;;;;;5013080;28;20218;-71
2021/03/18 00:54:14;;;;;;;15.67;6.30;;;;;;;;;;5012966;28;20219;-71
2021/03/18 00:56:58;;;;;;;15.27;6.03;;;;;;;;;;5012106;28;20427;-71
2021/03/18 00:59:43;;;;;;;12.37;5.87;;;;;;;;;;5012713;28;20250;-71
2021/03/18 01:02:28;;;;;;;10.77;5.83;;;;;;;;;;5012686;28;20362;-71
2021/03/18 01:05:15;;;;;;;12.13;6.07;;;;;;;;;;5012953;28;20408;-70
2021/03/18 01:08:00;;;;;;;13.50;6.10;;;;;;;;;;5011943;28;20425;-71
2021/03/18 01:10:45;;;;;;;12.00;6.30;;;;;;;;;;5012960;28;20525;-71
2021/03/18 01:13:30;;;;;;;14.60;6.23;;;;;;;;;;5012622;28;20470;-71
2021/03/18 01:16:16;;;;;;;14.25;7.88;;;;;;;;;;5010896;28;20400;-71
2021/03/18 01:19:01;;;;;;;12.93;6.63;;;;;;;;;;5012375;28;20206;-71
2021/03/18 01:21:47;;;;;;;15.97;6.07;;;;;;;;;;5012306;28;20305;-70
2021/03/18 01:24:32;;;;;;;12.87;6.00;;;;;;;;;;5012526;28;20237;-70
2021/03/18 01:27:16;;;;;;;12.53;5.70;;;;;;;;;;5011758;28;20257;-71
2021/03/18 01:30:01;;;;;;;14.53;6.17;;;;;;;;;;5012139;28;20197;-71
2021/03/18 01:32:45;;;;;;;10.90;6.30;;;;;;;;;;5012124;28;20226;-71
2021/03/18 01:35:31;;;;;;;13.13;6.10;;;;;;;;;;5011976;28;20227;-71
2021/03/18 01:38:15;;;;;;;12.30;6.10;;;;;;;;;;5011890;28;20214;-70
2021/03/18 01:41:00;;;;;;;10.43;6.00;;;;;;;;;;5012118;28;20246;-71
2021/03/18 01:43:45;;;;;;;15.47;6.60;;;;;;;;;;5011785;28;20301;-71
2021/03/18 01:46:29;;;;;;;17.43;6.70;;;;;;;;;;5011141;28;20207;-69
2021/03/18 01:49:14;;;;;;;15.33;6.23;;;;;;;;;;5012326;28;20199;-70
2021/03/18 01:51:59;;;;;;;14.63;6.00;;;;;;;;;;5011908;28;20221;-70
2021/03/18 01:54:43;;;;;;;13.30;6.70;;;;;;;;;;5011904;28;20721;-70
2021/03/18 01:57:28;;;;;;;15.53;5.77;;;;;;;;;;5011431;28;20584;-70
2021/03/18 02:00:13;;;;;;;15.57;5.97;;;;;;;;;;5011835;28;20769;-71
2021/03/18 02:02:58;;;;;;;11.97;6.00;;;;;;;;;;5011830;28;20218;-71
2021/03/18 02:05:42;;;;;;;11.17;5.87;;;;;;;;;;5011770;28;20741;-70
2021/03/18 02:08:28;;;;;;;15.63;5.93;;;;;;;;;;5011746;28;20269;-71
2021/03/18 02:11:12;;;;;;;14.47;6.27;;;;;;;;;;5011669;28;20225;-70
2021/03/18 02:13:57;;;;;;;15.87;6.07;;;;;;;;;;5011497;28;20346;-70
2021/03/18 02:16:44;;;;;;;11.60;5.93;;;;;;;;;;5010994;28;20294;-70
2021/03/18 02:19:44;;;;;;;14.70;5.67;;;;;;;;;;5011653;28;20206;-71
2021/03/18 02:22:37;;;;;;;8.80;5.20;;;;;;;;;;5011300;28;20273;-70
2021/03/18 02:25:24;;;;;;;13.27;5.50;;;;;;;;;;5011629;28;20218;-71
2021/03/18 02:28:24;;;;;;;13.33;5.03;;;;;;;;;;5011198;28;20565;-71
2021/03/18 02:31:11;;;;;;;15.13;5.63;;;;;;;;;;5011340;28;20214;-71
2021/03/18 02:34:13;;;;;;;11.50;5.43;;;;;;;;;;5011360;28;20226;-71
2021/03/18 02:36:59;;;;;;;14.27;5.83;;;;;;;;;;5010451;28;20280;-71
2021/03/18 02:39:48;;;;;;;11.97;4.93;;;;;;;;;;5011420;28;20210;-71
2021/03/18 02:42:33;;;;;;;14.13;5.57;;;;;;;;;;5011054;28;20237;-72
2021/03/18 02:45:18;;;;;;;16.80;6.00;;;;;;;;;;5011342;28;20277;-73
2021/03/18 02:48:04;;;;;;;15.60;7.65;;;;;;;;;;5009694;28;20435;-72
2021/03/18 02:50:49;;;;;;;15.40;6.10;;;;;;;;;;5010797;28;20276;-73
2021/03/18 02:53:35;;;;;;;15.03;5.83;;;;;;;;;;5011182;28;20199;-73
2021/03/18 02:56:20;;;;;;;10.43;5.40;;;;;;;;;;5012383;28;20210;-73
2021/03/18 02:59:05;;;;;;;14.13;5.40;;;;;;;;;;5015278;28;20269;-73
2021/03/18 03:01:50;;;;;;;14.60;5.57;;;;;;;;;;5015292;28;20229;-73
2021/03/18 03:04:35;;;;;;;13.17;6.00;;;;;;;;;;5015031;28;20245;-73
2021/03/18 03:07:20;;;;;;;13.57;5.70;;;;;;;;;;5014532;28;20196;-73
2021/03/18 03:10:06;;;;;;;15.70;5.87;;;;;;;;;;5014903;28;20206;-72
2021/03/18 03:12:51;;;;;;;13.73;5.87;;;;;;;;;;5014651;28;20597;-73
2021/03/18 03:15:36;;;;;;;12.60;5.20;;;;;;;;;;5014465;28;20277;-73
2021/03/18 03:18:21;;;;;;;7.50;4.90;;;;;;;;;;5014259;28;20230;-72
2021/03/18 03:21:06;;;;;;;13.90;7.55;;;;;;;;;;5013313;28;20767;-73
2021/03/18 03:23:51;;;;;;;11.63;5.77;;;;;;;;;;5014570;28;20267;-73
2021/03/18 03:26:37;;;;;;;10.90;5.03;;;;;;;;;;5014100;28;20198;-72
2021/03/18 03:29:22;;;;;;;14.17;5.73;;;;;;;;;;5014436;28;20218;-73
2021/03/18 03:32:07;;;;;;;14.57;5.50;;;;;;;;;;5014335;28;20221;-73
2021/03/18 03:34:53;;;;;;;12.73;5.90;;;;;;;;;;5014090;28;20628;-72
2021/03/18 03:37:38;;;;;;;12.90;5.53;;;;;;;;;;5013858;28;20273;-73
2021/03/18 03:40:22;;;;;;;12.67;5.37;;;;;;;;;;5014267;28;20206;-73
2021/03/18 03:43:08;;;;;;;12.60;5.60;;;;;;;;;;5014078;28;20282;-73
2021/03/18 03:45:53;;;;;;;10.97;5.20;;;;;;;;;;5014035;28;20214;-73
2021/03/18 03:48:37;;;;;;;15.50;5.83;;;;;;;;;;5014206;28;20194;-73
2021/03/18 03:51:22;;;;;;;10.73;4.87;;;;;;;;;;5014181;28;20227;-73
2021/03/18 03:54:08;;;;;;;9.80;5.17;;;;;;;;;;5014228;28;20266;-72
2021/03/18 03:56:56;;;;;;;10.67;5.10;;;;;;;;;;5013591;28;20561;-73
2021/03/18 03:59:44;;;;;;;12.10;5.33;;;;;;;;;;5014062;28;20246;-72
2021/03/18 04:02:29;;;;;;;13.77;5.73;;;;;;;;;;5013780;28;20573;-73
2021/03/18 04:05:14;;;;;;;14.20;5.20;;;;;;;;;;5013735;28;20210;-72
2021/03/18 04:08:00;;;;;;;14.90;5.40;;;;;;;;;;5012438;28;20206;-72
2021/03/18 04:10:45;;;;;;;9.57;5.33;;;;;;;;;;5013694;28;20736;-72
2021/03/18 04:13:31;;;;;;;12.10;5.10;;;;;;;;;;5013541;28;20195;-73
2021/03/18 04:16:17;;;;;;;12.40;5.40;;;;;;;;;;5013175;28;20203;-72
2021/03/18 04:19:02;;;;;;;12.97;5.83;;;;;;;;;;5013850;28;20253;-72
2021/03/18 04:21:49;;;;;;;15.45;7.55;;;;;;;;;;5012341;28;20547;-72
2021/03/18 04:24:35;;;;;;;12.30;6.00;;;;;;;;;;5013614;28;20569;-72
2021/03/18 04:27:19;;;;;;;13.90;6.40;;;;;;;;;;5013138;28;20203;-73
2021/03/18 04:30:05;;;;;;;12.20;5.90;;;;;;;;;;5013333;28;20428;-72
2021/03/18 04:32:50;;;;;;;11.93;5.70;;;;;;;;;;5013432;28;20306;-72
2021/03/18 04:35:35;;;;;;;12.20;5.87;;;;;;;;;;5012795;28;20254;-72
2021/03/18 04:38:20;;;;;;;11.83;6.00;;;;;;;;;;5013193;28;20444;-73
2021/03/18 04:41:05;;;;;;;15.90;6.37;;;;;;;;;;5013114;28;20958;-73
2021/03/18 04:43:50;;;;;;;14.53;6.03;;;;;;;;;;5013090;28;20206;-73
2021/03/18 04:46:35;;;;;;;14.63;5.80;;;;;;;;;;5012872;28;20214;-72
2021/03/18 04:49:23;;;;;;;11.77;6.00;;;;;;;;;;5013325;28;20242;-73
2021/03/18 04:52:07;;;;;;;13.87;5.67;;;;;;;;;;5013037;28;20220;-72
2021/03/18 04:54:51;;;;;;;16.93;5.70;;;;;;;;;;5012898;28;20242;-72
2021/03/18 04:57:40;;;;;;;12.93;5.90;;;;;;;;;;5012394;28;20489;-73
2021/03/18 05:00:25;;;;;;;11.93;6.03;;;;;;;;;;5012700;28;20266;-72
2021/03/18 05:03:12;;;;;;;15.30;5.90;;;;;;;;;;5012720;28;20630;-72
2021/03/18 05:05:57;;;;;;;15.87;6.17;;;;;;;;;;5012096;28;20198;-72
2021/03/18 05:08:42;;;;;;;16.27;8.30;;;;;;;;;;5011389;28;20824;-72
2021/03/18 05:11:26;;;;;;;13.27;6.53;;;;;;;;;;5012523;28;20232;-72
2021/03/18 05:14:12;;;;;;;13.60;6.17;;;;;;;;;;5012502;28;20682;-72
2021/03/18 05:16:56;;;;;;;11.50;5.73;;;;;;;;;;5012082;28;20203;-71
2021/03/18 05:19:42;;;;;;;11.87;5.60;;;;;;;;;;5012513;28;20293;-72
2021/03/18 05:22:27;;;;;;;16.27;6.17;;;;;;;;;;5012759;28;20227;-72
2021/03/18 05:25:12;;;;;;;11.73;5.83;;;;;;;;;;5012268;28;20202;-72
2021/03/18 05:27:56;;;;;;;13.30;6.07;;;;;;;;;;5011926;28;20202;-72
2021/03/18 05:30:41;;;;;;;12.60;6.00;;;;;;;;;;5027335;28;20272;-72
2021/03/18 05:33:26;;;;;;;15.73;5.93;;;;;;;;;;5031879;28;20210;-72
2021/03/18 05:36:10;;;;;;;15.30;6.27;;;;;;;;;;5011213;28;20597;-72
2021/03/18 05:38:56;;;;;;;16.17;6.40;;;;;;;;;;5015295;28;20734;-72
2021/03/18 05:41:41;;;;;;;10.37;6.03;;;;;;;;;;5031772;28;20210;-72
2021/03/18 05:44:25;;;;;;;14.93;6.60;;;;;;;;;;5031149;28;20665;-73
2021/03/18 05:47:10;;;;;;;15.67;6.07;;;;;;;;;;5031247;28;20383;-72
2021/03/18 05:49:55;;;;;;;11.73;6.13;;;;;;;;;;5030789;28;20209;-72
2021/03/18 05:52:40;;;;;;;12.80;6.10;;;;;;;;;;5031186;28;20233;-72
2021/03/18 05:55:25;;;;;;;14.70;7.73;;;;;;;;;;5030133;28;20522;-73
2021/03/18 05:58:12;;;;;;;15.00;7.63;;;;;;;;;;5030597;28;20416;-72
2021/03/18 06:00:56;;;;;;;13.70;7.17;;;;;;;;;;5029975;28;20310;-72
2021/03/18 06:03:41;;;;;;;21.70;7.63;;;;;;;;;;5011691;28;20254;-72
2021/03/18 06:06:26;;;;;;;18.33;8.03;;;;;;;;;;5023013;28;20218;-73
2021/03/18 06:09:10;;;;;;;17.13;8.27;;;;;;;;;;5031286;28;20248;-72
2021/03/18 06:11:56;;;;;;;19.67;7.63;;;;;;;;;;5031070;28;20735;-72
2021/03/18 06:14:40;;;;;;;14.47;8.20;;;;;;;;;;5031061;28;20226;-72
2021/03/18 06:17:25;;;;;;;14.30;7.43;;;;;;;;;;5028481;28;20818;-73
2021/03/18 06:20:11;;;;;;;17.40;7.97;;;;;;;;;;5011407;28;20240;-72
2021/03/18 06:22:56;;;;;;;17.90;8.00;;;;;;;;;;5011724;28;20753;-73
2021/03/18 06:25:41;;;;;;;14.47;7.97;;;;;;;;;;5011254;28;20689;-71
2021/03/18 06:28:27;;;;;;;15.13;8.20;;;;;;;;;;5011475;28;20228;-72
2021/03/18 06:31:12;;;;;;;13.70;7.53;;;;;;;;;;5030200;28;20284;-72
2021/03/18 06:33:56;;;;;;;18.43;8.20;;;;;;;;;;5031041;28;20233;-72
2021/03/18 06:36:41;;;;;;;16.43;8.53;;;;;;;;;;5021508;28;20223;-73
2021/03/18 06:39:29;;;;;;;18.00;8.30;;;;;;;;;;5011402;28;20207;-72
2021/03/18 06:42:14;;;;;;;13.73;8.83;;;;;;;;;;5028322;28;20277;-72
2021/03/18 06:45:11;;;;;;;16.47;8.47;;;;;;;;;;5031423;28;20206;-73
2021/03/18 06:47:58;;;;;;;16.63;8.97;;;;;;;;;;5021719;28;20258;-73
2021/03/18 06:50:43;;;;;;;19.27;9.80;;;;;;;;;;5017201;28;20609;-71
2021/03/18 06:53:28;;;;;;;16.03;9.73;;;;;;;;;;5015857;28;20705;-72
2021/03/18 06:56:27;;;;;;;18.93;9.53;;;;;;;;;;5027988;28;20800;-71
2021/03/18 06:59:19;;;;;;;21.70;10.07;;;;;;;;;;5018449;28;20642;-75
2021/03/18 07:02:05;;;;;;;19.30;10.60;;;;;;;;;;5016888;28;20325;-74
2021/03/18 07:04:52;;;;;;;23.27;10.30;;;;;;;;;;5027111;28;20233;-73
2021/03/18 07:07:36;;;;;;;18.53;10.93;;;;;;;;;;5016638;28;20205;-72
2021/03/18 07:10:33;;;;;;;19.60;11.37;;;;;;;;;;5011798;28;20226;-72
2021/03/18 07:13:18;;;;;;;18.33;11.87;;;;;;;;;;5014749;28;20330;-72
2021/03/18 07:16:08;;;;;;;16.50;12.03;;;;;;;;;;5029802;28;20245;-72
2021/03/18 07:18:58;;;;;;;18.93;12.40;;;;;;;;;;5029561;28;20210;-71
2021/03/18 07:21:42;;;;;;;21.97;13.10;;;;;;;;;;5028299;28;20763;-72
2021/03/18 07:24:28;;;;;;;27.77;13.63;;;;;;;;;;5016391;28;20747;-72
2021/03/18 07:27:13;;;;;;;26.37;14.53;;;;;;;;;;5024253;28;20613;-72
2021/03/18 07:29:58;;;;;;;26.98;18.52;;;;;;;;;;5029213;28;20810;-74
2021/03/18 07:32:42;;;;;;;24.10;15.10;;;;;;;;;;5029762;28;20294;-73
2021/03/18 07:35:28;;;;;;;23.27;13.63;;;;;;;;;;5030466;28;20229;-73
2021/03/18 07:38:13;;;;;;;21.30;12.80;;;;;;;;;;5023039;28;20242;-73
2021/03/18 07:40:58;;;;;;;21.10;12.50;;;;;;;;;;5010556;28;20733;-74
2021/03/18 07:43:43;;;;;;;18.83;12.63;;;;;;;;;;5017313;28;20244;-73
2021/03/18 07:46:28;;;;;;;21.57;11.30;;;;;;;;;;5027261;28;20214;-75
2021/03/18 07:49:14;;;;;;;19.87;11.93;;;;;;;;;;5030662;28;20954;-75
2021/03/18 07:52:01;;;;;;;24.90;11.13;;;;;;;;;;5013691;28;20231;-73
2021/03/18 07:54:46;;;;;;;17.33;11.10;;;;;;;;;;5013531;28;20291;-70
2021/03/18 07:57:39;;;;;;;19.90;10.60;;;;;;;;;;5022543;28;20229;-72
2021/03/18 08:00:25;;;;;;;19.48;13.15;;;;;;;;;;5032415;28;20430;-71
2021/03/18 08:03:26;;;;;;;17.47;11.23;;;;;;;;;;5032819;28;20256;-71
2021/03/18 08:06:11;;;;;;;18.60;10.93;;;;;;;;;;5032155;28;20273;-72
2021/03/18 08:08:56;;;;;;;17.50;10.23;;;;;;;;;;5021558;28;20230;-72
2021/03/18 08:11:41;;;;;;;17.73;11.27;;;;;;;;;;5019518;28;20229;-73
2021/03/18 08:14:25;;;;;;;19.92;12.13;;;;;;;;;;5030765;28;20453;-74
2021/03/18 08:17:29;;;;;;;18.80;10.77;;;;;;;;;;5028043;28;20205;-73
2021/03/18 08:20:34;;;;;;;15.67;8.97;;;;;;;;;;5027555;28;20210;-72
2021/03/18 08:23:38;;;;;;;16.97;9.03;;;;;;;;;;5019812;28;20233;-73
2021/03/18 08:26:37;;;;;;;19.97;9.73;;;;;;;;;;5021372;28;20205;-72
2021/03/18 08:29:24;;;;;;;19.40;9.20;;;;;;;;;;5031095;28;20210;-73
2021/03/18 08:32:10;;;;;;;17.90;9.03;;;;;;;;;;5020810;28;20230;-72
2021/03/18 08:34:56;;;;;;;14.90;9.10;;;;;;;;;;5013009;28;20219;-72
2021/03/18 08:37:41;;;;;;;17.30;8.13;;;;;;;;;;5013682;28;20211;-74
2021/03/18 08:40:30;;;;;;;20.17;8.67;;;;;;;;;;5012915;28;20195;-73
2021/03/18 08:43:14;;;;;;;21.67;8.97;;;;;;;;;;5030139;28;20218;-75
2021/03/18 08:46:01;;;;;;;21.07;9.33;;;;;;;;;;5032214;28;20781;-74
2021/03/18 08:49:16;;;;;;;19.10;8.17;;;;;;;;;;5013052;28;20565;-75
2021/03/18 08:52:02;;;;;;;18.33;8.33;;;;;;;;;;5018773;28;20571;-73
2021/03/18 08:54:54;;;;;;;24.57;8.83;;;;;;;;;;5015260;28;20230;-74
2021/03/18 08:57:39;;;;;;;28.83;8.97;;;;;;;;;;5012125;28;20210;-72
2021/03/18 09:00:25;;;;;;;24.25;10.50;;;;;;;;;;5029516;28;20477;-73
2021/03/18 09:03:14;;;;;;;22.60;9.30;;;;;;;;;;5012848;28;20209;-73
2021/03/18 09:05:59;;;;;;;22.13;9.03;;;;;;;;;;5012176;28;20216;-74
2021/03/18 09:08:47;;;;;;;23.40;9.63;;;;;;;;;;5012644;28;20604;-74
2021/03/18 09:11:31;;;;;;;27.13;8.73;;;;;;;;;;5014993;28;20630;-73
2021/03/18 09:14:16;;;;;;;27.03;9.70;;;;;;;;;;5027845;28;20261;-72
2021/03/18 09:17:03;;;;;;;25.77;9.10;;;;;;;;;;5029559;28;20202;-72
2021/03/18 09:19:48;;;;;;;24.53;8.63;;;;;;;;;;5031984;28;20506;-70
2021/03/18 09:22:33;;;;;;;24.17;8.23;;;;;;;;;;5028423;28;20210;-70
2021/03/18 09:25:17;;;;;;;26.00;9.30;;;;;;;;;;5030243;28;20682;-70
2021/03/18 09:28:02;;;;;;;27.97;9.73;;;;;;;;;;5017256;28;20210;-72
2021/03/18 09:30:49;;;;;;;21.77;8.27;;;;;;;;;;5012218;28;20227;-72
2021/03/18 09:33:34;;;;;;;19.60;7.87;;;;;;;;;;5019987;28;20208;-71
2021/03/18 09:36:21;;;;;;;26.90;9.57;;;;;;;;;;5028996;28;20223;-71
2021/03/18 09:39:08;;;;;;;24.17;8.83;;;;;;;;;;5015407;28;20201;-71
2021/03/18 09:41:55;;;;;;;26.27;8.80;;;;;;;;;;5026456;28;20570;-71
2021/03/18 09:44:40;;;;;;;26.17;9.25;;;;;;;;;;5029484;28;20489;-72
2021/03/18 09:47:24;;;;;;;29.10;8.63;;;;;;;;;;5029184;28;20683;-74
2021/03/18 09:50:09;;;;;;;25.87;8.37;;;;;;;;;;5023594;28;20238;-68
2021/03/18 09:53:05;;;;;;;24.43;8.70;;;;;;;;;;5011344;28;20257;-71
2021/03/18 09:55:50;;;;;;;28.83;8.07;;;;;;;;;;5027090;28;20252;-70
2021/03/18 09:58:35;;;;;;;21.07;8.13;;;;;;;;;;5011578;28;20197;-69
2021/03/18 10:01:20;;;;;;;28.33;8.17;;;;;;;;;;5026195;28;20578;-70
2021/03/18 10:04:05;;;;;;;26.70;7.73;;;;;;;;;;5031172;28;20286;-70
2021/03/18 10:06:52;;;;;;;27.67;8.17;;;;;;;;;;5028913;28;20264;-70
2021/03/18 10:09:39;;;;;;;29.70;8.13;;;;;;;;;;5031303;28;20259;-70
2021/03/18 10:12:26;;;;;;;25.80;8.03;;;;;;;;;;5030815;28;20643;-70
2021/03/18 10:15:13;;;;;;;26.90;8.03;;;;;;;;;;5030795;28;20273;-70
2021/03/18 10:17:58;;;;;;;27.03;8.47;;;;;;;;;;5030464;28;20739;-70
2021/03/18 10:20:43;;;;;;;22.50;7.53;;;;;;;;;;5024752;28;20237;-70
2021/03/18 10:23:27;;;;;;;22.27;7.40;;;;;;;;;;5025908;28;20212;-70
2021/03/18 10:26:20;;;;;;;26.27;7.80;;;;;;;;;;5023095;28;20210;-70
2021/03/18 10:29:06;;;;;;;26.60;8.27;;;;;;;;;;5026943;28;20226;-70
2021/03/18 10:31:50;;;;;;;25.60;9.02;;;;;;;;;;5027562;28;20392;-69
2021/03/18 10:34:35;;;;;;;25.33;7.87;;;;;;;;;;5030991;28;20256;-71
2021/03/18 10:37:27;;;;;;;22.47;7.23;;;;;;;;;;5030166;28;20633;-71
2021/03/18 10:40:16;;;;;;;24.47;7.67;;;;;;;;;;5017538;28;20282;-71
2021/03/18 10:43:02;;;;;;;22.07;7.27;;;;;;;;;;5010798;28;20229;-69
2021/03/18 10:45:46;;;;;;;24.50;7.73;;;;;;;;;;5015554;28;20711;-70
2021/03/18 10:48:31;;;;;;;19.50;8.03;;;;;;;;;;5013609;28;20210;-72
2021/03/18 10:51:16;;;;;;;20.00;7.10;;;;;;;;;;5011015;28;20273;-72
2021/03/18 10:54:01;;;;;;;23.57;8.57;;;;;;;;;;5010880;28;20225;-72
2021/03/18 10:56:46;;;;;;;26.47;8.83;;;;;;;;;;5010244;28;20287;-72
2021/03/18 10:59:31;;;;;;;29.17;8.47;;;;;;;;;;5022557;28;20228;-73
2021/03/18 11:02:15;;;;;;;22.87;8.40;;;;;;;;;;5029764;28;20248;-72
2021/03/18 11:05:01;;;;;;;25.70;8.40;;;;;;;;;;5028795;28;20256;-72
2021/03/18 11:07:53;;;;;;;26.57;8.20;;;;;;;;;;5010387;28;20210;-72
2021/03/18 11:10:39;;;;;;;21.70;8.20;;;;;;;;;;5017917;28;20349;-72
2021/03/18 11:13:25;;;;;;;23.73;8.17;;;;;;;;;;5029096;28;20225;-74
2021/03/18 11:16:10;;;;;;;24.10;8.75;;;;;;;;;;5028585;28;20575;-70
2021/03/18 11:18:56;;;;;;;22.17;8.03;;;;;;;;;;5014728;28;20209;-69
2021/03/18 11:21:41;;;;;;;20.37;7.43;;;;;;;;;;5014836;28;20227;-69
2021/03/18 11:24:27;;;;;;;22.97;8.30;;;;;;;;;;5014648;28;20209;-71
2021/03/18 11:27:12;;;;;;;21.37;8.33;;;;;;;;;;5017890;28;20288;-71
2021/03/18 11:29:56;;;;;;;25.63;8.13;;;;;;;;;;5031988;28;20282;-70
2021/03/18 11:32:41;;;;;;;21.30;7.37;;;;;;;;;;5026832;28;20336;-70
2021/03/18 11:35:25;;;;;;;23.50;7.17;;;;;;;;;;5014036;28;20234;-70
2021/03/18 11:38:11;;;;;;;19.00;6.63;;;;;;;;;;5013990;28;20617;-70
2021/03/18 11:40:55;;;;;;;20.03;7.50;;;;;;;;;;5014009;28;20225;-70
2021/03/18 11:43:41;;;;;;;19.57;6.63;;;;;;;;;;5014213;28;20205;-70
2021/03/18 11:46:25;;;;;;;22.23;7.57;;;;;;;;;;5012892;28;20405;-70
2021/03/18 11:49:11;;;;;;;22.73;7.93;;;;;;;;;;5014204;28;20802;-70
2021/03/18 11:51:55;;;;;;;19.30;7.00;;;;;;;;;;5013996;28;20246;-70
2021/03/18 11:54:40;;;;;;;17.53;6.67;;;;;;;;;;5013778;28;20277;-70
2021/03/18 11:57:24;;;;;;;18.17;6.67;;;;;;;;;;5013632;28;20213;-69
2021/03/18 12:00:09;;;;;;;17.30;6.60;;;;;;;;;;5030491;28;20394;-69
2021/03/18 12:02:54;;;;;;;20.13;6.37;;;;;;;;;;5031123;28;20571;-69
2021/03/18 12:05:40;;;;;;;17.60;6.53;;;;;;;;;;5025290;28;20253;-70
2021/03/18 12:08:24;;;;;;;17.60;6.30;;;;;;;;;;5028381;28;20278;-70
2021/03/18 12:11:09;;;;;;;22.37;6.83;;;;;;;;;;5026058;28;20273;-70
2021/03/18 12:13:53;;;;;;;21.83;6.67;;;;;;;;;;5021837;28;20221;-70
2021/03/18 12:16:38;;;;;;;21.60;6.43;;;;;;;;;;5030623;28;20618;-71
2021/03/18 12:19:22;;;;;;;21.50;6.60;;;;;;;;;;5013223;28;20245;-71
2021/03/18 12:22:08;;;;;;;23.57;7.17;;;;;;;;;;5028770;28;20229;-70
2021/03/18 12:24:52;;;;;;;21.93;6.87;;;;;;;;;;5032974;28;20291;-71
2021/03/18 12:27:37;;;;;;;22.73;5.73;;;;;;;;;;5012127;28;20289;-72
2021/03/18 12:30:22;;;;;;;22.30;5.63;;;;;;;;;;5022531;28;20748;-70
2021/03/18 12:33:07;;;;;;;20.70;6.10;;;;;;;;;;5030942;28;20225;-72
2021/03/18 12:35:52;;;;;;;21.00;6.30;;;;;;;;;;5030451;28;20263;-70
2021/03/18 12:38:37;;;;;;;17.87;5.87;;;;;;;;;;5030933;28;20294;-70
2021/03/18 12:41:22;;;;;;;20.50;6.23;;;;;;;;;;5032233;28;20678;-70
2021/03/18 12:44:06;;;;;;;18.13;5.73;;;;;;;;;;5032527;28;20535;-69
2021/03/18 12:46:51;;;;;;;21.00;7.20;;;;;;;;;;5017300;28;20439;-69
2021/03/18 12:49:36;;;;;;;22.20;7.20;;;;;;;;;;5012353;28;20206;-70
2021/03/18 12:52:20;;;;;;;21.20;6.33;;;;;;;;;;5022655;28;20201;-70
2021/03/18 12:55:06;;;;;;;16.23;5.20;;;;;;;;;;5030795;28;20629;-69
2021/03/18 12:57:51;;;;;;;17.50;6.17;;;;;;;;;;5030461;28;20286;-70
2021/03/18 13:00:37;;;;;;;19.73;6.10;;;;;;;;;;5028567;28;20260;-69
2021/03/18 13:03:21;;;;;;;19.60;5.63;;;;;;;;;;5032128;28;20237;-69
2021/03/18 13:06:05;;;;;;;19.03;5.90;;;;;;;;;;5026280;28;20723;-68
2021/03/18 13:08:50;;;;;;;18.27;5.23;;;;;;;;;;5012541;28;20246;-69
2021/03/18 13:11:35;;;;;;;18.00;5.00;;;;;;;;;;5023809;28;20807;-69
2021/03/18 13:14:20;;;;;;;14.40;4.40;;;;;;;;;;5032109;28;20285;-69
2021/03/18 13:17:05;;;;;;;15.90;5.38;;;;;;;;;;5031558;28;20422;-69
2021/03/18 13:19:49;;;;;;;10.70;3.97;;;;;;;;;;5031727;28;20201;-70
2021/03/18 13:22:34;;;;;;;13.30;5.00;;;;;;;;;;5032143;28;20317;-68
2021/03/18 13:25:19;;;;;;;12.73;4.73;;;;;;;;;;5031672;28;20216;-68
2021/03/18 13:28:05;;;;;;;16.70;4.70;;;;;;;;;;5030570;28;20250;-69
2021/03/18 13:30:49;;;;;;;14.40;5.07;;;;;;;;;;5031994;28;20232;-69
2021/03/18 13:33:34;;;;;;;15.30;4.80;;;;;;;;;;5031274;28;20228;-69
2021/03/18 13:36:18;;;;;;;17.57;5.83;;;;;;;;;;5020731;28;20269;-69
2021/03/18 13:39:03;;;;;;;16.47;8.03;;;;;;;;;;5012125;28;20547;-70
2021/03/18 13:41:47;;;;;;;14.53;4.73;;;;;;;;;;5011795;28;20298;-69
2021/03/18 13:44:33;;;;;;;11.73;4.90;;;;;;;;;;5011833;28;20614;-69
2021/03/18 13:47:17;;;;;;;18.73;4.80;;;;;;;;;;5014966;28;20206;-69
2021/03/18 13:50:02;;;;;;;17.77;5.07;;;;;;;;;;5018422;28;20635;-70
2021/03/18 13:52:48;;;;;;;16.13;4.90;;;;;;;;;;5025953;28;20242;-69
2021/03/18 13:55:33;;;;;;;16.87;6.27;;;;;;;;;;5023322;28;20377;-71
2021/03/18 13:58:18;;;;;;;14.40;5.33;;;;;;;;;;5012039;28;20222;-69
2021/03/18 14:01:04;;;;;;;14.87;4.60;;;;;;;;;;5010669;28;20308;-69
2021/03/18 14:03:49;;;;;;;12.27;3.90;;;;;;;;;;5015066;28;20732;-69
2021/03/18 14:06:33;;;;;;;17.43;4.53;;;;;;;;;;5031026;28;20260;-69
2021/03/18 14:09:19;;;;;;;10.03;3.60;;;;;;;;;;5021222;28;20249;-70
2021/03/18 14:12:05;;;;;;;11.97;4.00;;;;;;;;;;5031094;28;20229;-70
2021/03/18 14:14:49;;;;;;;12.27;3.57;;;;;;;;;;5011714;28;20615;-71
2021/03/18 14:17:34;;;;;;;13.15;4.78;;;;;;;;;;5019085;28;20422;-70
2021/03/18 14:20:20;;;;;;;10.50;3.67;;;;;;;;;;5030918;28;20272;-71
2021/03/18 14:23:05;;;;;;;13.80;3.97;;;;;;;;;;5030306;28;20244;-69
2021/03/18 14:25:50;;;;;;;10.17;3.90;;;;;;;;;;5025874;28;20268;-69
2021/03/18 14:28:34;;;;;;;7.87;3.27;;;;;;;;;;5024285;28;20261;-69
2021/03/18 14:31:19;;;;;;;12.20;3.60;;;;;;;;;;5015567;28;20307;-68
2021/03/18 14:34:04;;;;;;;9.50;3.30;;;;;;;;;;5023471;28;20234;-70
2021/03/18 14:36:49;;;;;;;11.07;3.70;;;;;;;;;;5014442;28;20316;-70
2021/03/18 14:39:33;;;;;;;10.67;3.30;;;;;;;;;;5028778;28;20202;-72
2021/03/18 14:42:18;;;;;;;9.87;3.63;;;;;;;;;;5030198;28;20732;-72
2021/03/18 14:45:02;;;;;;;11.87;4.20;;;;;;;;;;5030905;28;20261;-71
2021/03/18 14:47:47;;;;;;;10.87;3.87;;;;;;;;;;5028258;28;20233;-70
2021/03/18 14:50:32;;;;;;;12.20;4.20;;;;;;;;;;5028918;28;20224;-70
2021/03/18 14:53:17;;;;;;;8.10;3.40;;;;;;;;;;5034068;28;20209;-70
2021/03/18 14:56:02;;;;;;;11.90;3.70;;;;;;;;;;5029423;28;20218;-70
2021/03/18 14:58:46;;;;;;;11.03;3.63;;;;;;;;;;5014869;28;20241;-69
2021/03/18 15:01:31;;;;;;;10.05;4.03;;;;;;;;;;5013682;28;20402;-69
2021/03/18 15:04:15;;;;;;;12.97;3.83;;;;;;;;;;5014713;28;20211;-69
2021/03/18 15:07:00;;;;;;;12.63;4.20;;;;;;;;;;5022837;28;20202;-68
2021/03/18 15:09:45;;;;;;;12.93;4.00;;;;;;;;;;5018237;28;20250;-69
2021/03/18 15:12:29;;;;;;;14.27;4.07;;;;;;;;;;5024170;28;20246;-69
2021/03/18 15:15:14;;;;;;;11.87;4.00;;;;;;;;;;5024758;28;20232;-71
2021/03/18 15:17:59;;;;;;;13.37;3.70;;;;;;;;;;5034047;28;20608;-71
2021/03/18 15:20:47;;;;;;;15.00;3.97;;;;;;;;;;5014559;28;20234;-71
2021/03/18 15:23:32;;;;;;;14.47;4.17;;;;;;;;;;5014409;28;20298;-71
2021/03/18 15:26:16;;;;;;;13.17;3.77;;;;;;;;;;5013991;28;20226;-70
2021/03/18 15:29:03;;;;;;;13.13;4.23;;;;;;;;;;5014369;28;20203;-70
2021/03/18 15:31:47;;;;;;;16.97;5.83;;;;;;;;;;5014115;28;20206;-70
2021/03/18 15:34:32;;;;;;;13.40;4.20;;;;;;;;;;5013818;28;20209;-71
2021/03/18 15:37:17;;;;;;;9.83;3.50;;;;;;;;;;5015224;28;20296;-71
2021/03/18 15:40:04;;;;;;;12.77;4.10;;;;;;;;;;5033812;28;20639;-71
2021/03/18 15:42:48;;;;;;;18.73;7.23;;;;;;;;;;5014177;28;20302;-71
2021/03/18 15:45:35;;;;;;;21.77;10.73;;;;;;;;;;5012734;28;20423;-71
2021/03/18 15:48:19;;;;;;;12.47;4.10;;;;;;;;;;5013918;28;20419;-71
2021/03/18 15:51:04;;;;;;;16.90;7.20;;;;;;;;;;5013952;28;20230;-71
2021/03/18 15:53:48;;;;;;;14.00;4.70;;;;;;;;;;5014002;28;20221;-71
2021/03/18 15:56:33;;;;;;;16.17;4.90;;;;;;;;;;5013465;28;20633;-70
2021/03/18 15:59:18;;;;;;;13.00;4.93;;;;;;;;;;5022680;28;20221;-71
2021/03/18 16:02:04;;;;;;;11.50;4.10;;;;;;;;;;5033547;28;20302;-71
2021/03/18 16:04:48;;;;;;;11.63;3.40;;;;;;;;;;5012881;28;20662;-71
2021/03/18 16:07:33;;;;;;;13.37;4.30;;;;;;;;;;5013269;28;20249;-71
2021/03/18 16:10:18;;;;;;;12.40;4.00;;;;;;;;;;5020606;28;20234;-71
2021/03/18 16:13:03;;;;;;;13.70;4.30;;;;;;;;;;5031229;28;20568;-71
2021/03/18 16:15:48;;;;;;;19.77;5.40;;;;;;;;;;5027165;28;20272;-71
2021/03/18 16:18:32;;;;;;;16.77;4.53;;;;;;;;;;5033368;28;20311;-71